Latest Weather Observations for Tasman Island

IDT60901

Issued at 10:31 pm EDT Monday 5 December 2022 (issued every 10 minutes, with the page automatically refreshed every 10 minutes)

About weather observations | Map of Hobart area stations | Latest observations for Hobart area | Other Formats
Station Details ID: 094155 Name: TASMAN ISLAND Lat: -43.24 Lon: 148.00 Height: 240.0 m
Data from the previous 72 hours. | See also: Recent months at Tasman Island
Date/Time
EDT
Temp
°C
App
Temp
°C
Dew
Point
°C
Rel
Hum
%
Delta-T
°C
Wind Press
QNH
hPa
Press
MSL
hPa
Rain since
9am
mm
Dir  Spd
km/h
Gust
km/h
Spd
kts
Gust
kts
05/10:30pm 9.5 3.7 4.5 71 2.2 SE 24 37 13 20 1015.7 1015.5 0.2
05/10:00pm 9.4 3.4 3.6 67 2.6 SSE 24 41 13 22 1015.9 1015.7 0.2
05/09:30pm 9.2 2.8 3.4 67 2.5 SSE 26 46 14 25 1015.8 1015.6 0.2
05/09:09pm 9.3 2.6 3.5 67 2.5 SE 28 50 15 27 1015.6 1015.4 0.2
05/09:00pm 9.2 3.4 2.5 63 2.9 SSE 22 39 12 21 1015.6 1015.4 0.2
05/08:30pm 9.3 3.0 3.5 67 2.5 SSE 26 46 14 25 1015.3 1015.1 0.2
05/08:26pm 9.4 2.7 3.6 67 2.6 SSE 28 46 15 25 1015.3 1015.1 0.2
05/08:00pm 9.5 3.7 4.3 70 2.3 SSE 24 43 13 23 1015.1 1014.9 0.2
05/07:34pm 9.6 3.1 4.6 71 2.3 SSE 28 46 15 25 1014.9 1014.7 0.2
05/07:30pm 9.6 3.4 4.4 70 2.3 SSE 26 46 14 25 1014.9 1014.7 0.2
05/07:06pm 9.6 3.2 5.0 73 2.1 SSE 28 46 15 25 1014.6 1014.4 0.2
05/07:00pm 9.7 3.6 4.9 72 2.2 SSE 26 44 14 24 1014.5 1014.3 0.2
05/06:30pm 9.9 3.9 5.3 73 2.1 SSE 26 46 14 25 1013.8 1013.7 0.2
05/06:07pm 9.8 3.5 5.8 76 1.9 SSE 28 48 15 26 1013.4 1013.3 0.2
05/06:00pm 9.9 4.1 6.1 77 1.8 SSE 26 43 14 23 1013.3 1013.2 0.2
05/05:30pm 10.1 4.2 5.9 75 2.0 S 26 41 14 22 1013.1 1013.0 0.2
05/05:00pm 11.5 5.9 5.4 66 2.9 S 24 44 13 24 1013.0 1012.9 0.2
05/04:33pm 10.7 4.4 5.7 71 2.3 SSE 28 46 15 25 1012.8 1012.7 0.2
05/04:30pm 10.9 5.2 6.5 74 2.1 SSE 26 46 14 25 1012.8 1012.7 0.2
05/04:00pm 10.5 3.4 6.5 76 1.9 SSE 33 56 18 30 1012.6 1012.5 0.2
05/03:30pm 9.5 3.4 8.4 93 0.5 SSE 30 50 16 27 1012.6 1012.5 0.2
05/03:00pm 9.0 2.6 8.4 96 0.3 SSE 32 52 17 28 1012.5 1012.3 0.0
05/02:30pm 9.6 3.9 8.5 93 0.5 SSE 28 52 15 28 1012.4 1012.2 0.0
05/02:00pm 10.1 4.3 7.9 86 1.1 SSE 28 63 15 34 1012.2 1012.0 0.0
05/01:30pm 10.5 4.2 7.6 82 1.4 SSE 30 54 16 29 1012.0 1011.8 0.0
05/01:00pm 10.3 4.2 8.4 88 0.9 SE 30 52 16 28 1011.8 1011.6 0.0
05/12:30pm 10.0 3.7 8.8 92 0.6 SSE 32 56 17 30 1011.5 1011.3 0.0
05/12:00pm 9.7 2.2 9.6 99 0.1 SE 39 63 21 34 1011.2 1011.0 0.0
05/11:30am 9.7 3.4 9.7 100 0.0 SE 33 57 18 31 1010.9 1010.7 0.0
05/11:00am 10.0 4.7 10.0 100 0.0 SSE 28 56 15 30 1010.7 1010.5 0.0
05/10:30am 10.0 4.0 10.0 100 0.0 SSE 32 61 17 33 1010.2 1010.0 0.0
05/10:00am 10.1 4.5 10.1 100 0.0 SSE 30 52 16 28 1009.9 1009.8 0.0
05/09:34am 10.1 4.9 10.1 100 0.0 SSE 28 52 15 28 1009.8 1009.7 0.0
05/09:30am 10.1 5.2 10.1 100 0.0 SSE 26 43 14 23 1009.8 1009.7 0.0
05/09:03am 10.3 5.1 10.3 100 0.0 SSE 28 50 15 27 1009.6 1009.5 0.0
05/09:00am 10.2 5.4 10.2 100 0.0 SSE 26 50 14 27 1009.6 1009.5 5.8
05/08:30am 10.4 4.3 10.4 100 0.0 SSE 33 57 18 31 1009.0 1008.8 5.4
05/08:00am 10.6 4.5 10.6 100 0.0 SE 33 59 18 32 1008.6 1008.4 5.4
05/07:30am 10.5 2.0 10.5 100 0.0 SE 46 67 25 36 1007.6 1007.4 5.4
05/07:00am 10.9 3.0 10.9 100 0.0 SE 43 65 23 35 1007.3 1007.1 5.4
05/06:30am 11.3 4.7 11.3 100 0.0 SE 37 56 20 30 1006.7 1006.5 5.0
05/06:01am 11.7 3.9 11.7 100 0.0 SE 44 65 24 35 1006.5 1006.3 3.8
05/06:00am 11.6 3.4 11.6 100 0.0 SE 46 65 25 35 1006.5 1006.3 3.8
05/05:36am 11.6 3.0 11.6 100 0.0 SE 48 67 26 36 1005.9 1005.7 3.6
05/05:30am 11.7 4.1 11.7 100 0.0 SE 43 67 23 36 1005.8 1005.6 3.6
05/05:23am 12.0 6.5 12.0 100 0.0 SE 32 54 17 29 1005.9 1005.7 3.4
05/05:00am 12.4 7.5 12.4 100 0.0 SE 30 43 16 23 1006.0 1005.8 2.4
05/04:30am 12.6 10.2 12.6 100 0.0 SSE 17 32 9 17 1005.6 1005.5 1.8
05/04:00am 12.7 9.7 12.7 100 0.0 SE 20 32 11 17 1005.4 1005.2 1.4
05/03:30am 12.7 9.9 12.7 100 0.0 SE 19 32 10 17 1005.4 1005.2 0.8
05/03:00am 12.8 10.8 12.8 100 0.0 SSE 15 26 8 14 1005.9 1005.7 0.4
05/02:30am 12.8 12.3 12.8 100 0.0 S 7 22 4 12 1005.9 1005.7 0.0
05/02:00am 12.9 12.7 12.9 100 0.0 SSW 6 24 3 13 1005.5 1005.4 0.0
05/01:30am 12.9 12.7 12.9 100 0.0 S 6 15 3 8 1006.4 1006.2 0.0
05/01:00am 12.7 12.4 12.7 100 0.0 SSE 6 17 3 9 1006.1 1005.9 0.0
05/12:30am 12.6 12.7 12.6 100 0.0 SSW 4 13 2 7 1007.0 1006.8 0.0
05/12:00am 12.7 12.2 12.7 100 0.0 NNW 7 28 4 15 1007.7 1007.5 0.0
 
Date/Time
EDT
Temp
°C
App
Temp
°C
Dew
Point
°C
Rel
Hum
%
Delta-T
°C
Wind Press
QNH
hPa
Press
MSL
hPa
Rain since
9am
mm
Dir  Spd
km/h
Gust
km/h
Spd
kts
Gust
kts
04/11:30pm 12.6 12.1 12.6 100 0.0 E 7 15 4 8 1008.2 1008.0 0.0
04/11:00pm 12.6 12.1 12.6 100 0.0 E 7 19 4 10 1008.2 1008.0 0.0
04/10:30pm 12.6 12.1 12.6 100 0.0 NE 7 19 4 10 1008.7 1008.5 0.0
04/10:00pm 12.5 12.0 12.5 100 0.0 ENE 7 24 4 13 1008.6 1008.4 0.0
04/09:30pm 12.4 11.8 12.4 100 0.0 NE 7 22 4 12 1008.9 1008.7 0.0
04/09:00pm 12.3 11.3 12.3 100 0.0 NNE 9 20 5 11 1008.9 1008.7 0.0
04/08:30pm 12.2 10.0 12.2 100 0.0 NNE 15 32 8 17 1008.1 1007.9 0.0
04/08:00pm 12.2 10.7 11.9 98 0.2 ENE 11 39 6 21 1008.4 1008.2 0.0
04/07:30pm 12.3 10.0 11.7 96 0.3 ENE 15 39 8 21 1008.5 1008.3 0.0
04/07:00pm 12.4 9.2 11.8 96 0.3 ENE 20 39 11 21 1009.0 1008.8 0.0
04/06:30pm 12.4 9.3 11.6 95 0.4 E 19 39 10 21 1009.4 1009.3 0.0
04/06:00pm 12.8 11.2 11.5 92 0.7 E 11 28 6 15 1010.1 1009.9 0.0
04/05:30pm 13.0 11.5 11.9 93 0.6 ESE 11 24 6 13 1010.7 1010.5 0.0
04/05:00pm 13.4 12.6 11.8 90 0.9 ESE 7 17 4 9 1011.0 1010.8 0.0
04/04:30pm 13.6 11.2 11.3 86 1.2 E 15 20 8 11 1011.0 1010.8 0.0
04/04:00pm 14.1 12.5 11.6 85 1.4 E 11 17 6 9 1011.1 1010.9 0.0
04/03:30pm 14.0 12.4 11.5 85 1.4 E 11 22 6 12 1010.9 1010.7 0.0
04/03:00pm 14.2 12.6 11.5 84 1.5 E 11 20 6 11 1011.1 1010.9 0.0
04/02:30pm 13.4 10.8 10.8 84 1.4 E 15 22 8 12 1011.2 1011.0 0.0
04/02:00pm 13.9 11.7 10.7 81 1.7 ENE 13 20 7 11 1011.7 1011.5 0.0
04/01:30pm 15.0 14.1 11.4 79 2.0 E 7 13 4 7 1012.2 1012.0 0.0
04/01:00pm 13.8 11.8 10.0 78 2.0 E 11 15 6 8 1012.5 1012.3 0.0
04/12:30pm 14.2 12.7 10.6 79 1.9 E 9 13 5 7 1012.8 1012.7 0.0
04/12:00pm 15.1 14.5 12.2 83 1.6 ESE 7 13 4 7 1013.0 1012.9 0.0
04/11:30am 15.9 15.6 12.8 82 1.7 SE 6 13 3 7 1013.0 1012.9 0.0
04/11:00am 15.4 14.4 12.3 82 1.7 E 9 13 5 7 1013.3 1013.2 0.0
04/10:30am 14.6 14.0 11.7 83 1.6 SE 6 11 3 6 1013.2 1013.1 0.0
04/10:00am 14.1 13.5 12.3 89 1.0 S 7 11 4 6 1013.5 1013.4 0.0
04/09:30am 14.0 13.2 11.2 83 1.5 SW 6 11 3 6 1013.7 1013.6 0.0
04/09:00am 13.4 13.0 12.3 93 0.6 NNW 6 11 3 6 1013.6 1013.5 0.0
04/08:30am 12.7 12.2 11.9 95 0.4 SW 6 7 3 4 1013.6 1013.5 0.0
04/08:00am 12.4 12.1 11.6 95 0.4 SSW 4 7 2 4 1013.3 1013.2 0.0
04/07:30am 12.6 12.1 12.1 97 0.3 NE 6 9 3 5 1012.9 1012.8 0.0
04/07:00am 11.8 12.4 11.8 100 0.0 CALM 0 0 0 0 1013.0 1012.9 0.0
04/06:30am 11.7 12.2 11.7 100 0.0 CALM 0 4 0 2 1012.7 1012.6 0.0
04/06:00am 11.5 11.2 11.5 100 0.0 SSE 4 7 2 4 1012.9 1012.8 0.0
04/05:30am 11.3 10.4 11.3 100 0.0 SSE 7 9 4 5 1012.8 1012.7 0.0
04/05:00am 11.2 10.3 11.2 100 0.0 SSE 7 9 4 5 1012.5 1012.3 0.0
04/04:30am 10.9 11.2 10.9 100 0.0 CALM 0 0 0 0 1012.6 1012.5 0.0
04/04:00am 10.7 9.8 10.7 100 0.0 NNE 6 11 3 6 1012.6 1012.5 0.0
04/03:30am 11.2 9.1 11.2 100 0.0 NNE 13 20 7 11 1012.4 1012.2 0.0
04/03:00am 11.0 8.9 11.0 100 0.0 NNE 13 19 7 10 1012.5 1012.3 0.0
04/02:30am 10.7 9.2 10.7 100 0.0 NE 9 11 5 6 1012.9 1012.8 0.0
04/02:00am 10.7 10.6 10.7 100 0.0 W 2 9 1 5 1013.6 1013.5 0.0
04/01:30am 10.8 10.7 10.8 100 0.0 SSW 2 6 1 3 1013.9 1013.8 0.0
04/01:00am 10.8 9.7 10.8 100 0.0 SSW 7 9 4 5 1014.2 1014.1 0.0
04/12:30am 11.1 9.8 11.1 100 0.0 SSW 9 11 5 6 1014.5 1014.3 0.0
04/12:00am 11.3 10.0 11.3 100 0.0 S 9 13 5 7 1014.6 1014.4 0.0
 
Date/Time
EDT
Temp
°C
App
Temp
°C
Dew
Point
°C
Rel
Hum
%
Delta-T
°C
Wind Press
QNH
hPa
Press
MSL
hPa
Rain since
9am
mm
Dir  Spd
km/h
Gust
km/h
Spd
kts
Gust
kts
03/11:30pm 11.7 9.8 11.7 100 0.0 S 13 17 7 9 1014.8 1014.6 0.0
03/11:00pm 11.7 10.1 11.7 100 0.0 SSW 11 15 6 8 1014.9 1014.7 0.0
03/10:30pm 11.9 10.3 11.7 99 0.1 S 11 17 6 9 1014.7 1014.5 0.0
03/10:00pm 11.9 10.3 11.7 99 0.1 S 11 19 6 10 1014.8 1014.6 0.0
03/09:30pm 11.9 10.3 11.7 99 0.1 S 11 17 6 9 1014.5 1014.3 0.0
03/09:00pm 12.0 10.8 11.7 98 0.2 S 9 13 5 7 1014.2 1014.1 0.0
03/08:30pm 12.2 10.3 11.7 97 0.3 SSE 13 20 7 11 1014.0 1013.9 0.0
03/08:00pm 12.6 9.9 11.8 95 0.4 SSE 17 24 9 13 1013.9 1013.8 0.0
03/07:30pm 13.2 10.2 12.1 93 0.6 SE 19 28 10 15 1013.7 1013.6 0.0
03/07:00pm 13.5 10.2 11.6 88 1.0 SE 20 30 11 16 1013.5 1013.4 0.0
03/06:30pm 13.7 9.5 12.3 91 0.8 SE 26 39 14 21 1013.4 1013.3 0.0
03/06:00pm 14.9 12.7 12.2 84 1.5 SE 15 24 8 13 1013.3 1013.2 0.0
03/05:30pm 15.6 14.9 11.4 76 2.3 E 6 11 3 6 1012.9 1012.8 0.0
03/05:00pm 17.0 13.2 9.2 60 4.1 NNE 19 28 10 15 1012.8 1012.7 0.0
03/04:30pm 17.4 13.5 9.6 60 4.1 NNE 20 28 11 15 1012.6 1012.5 0.0
03/04:00pm 17.5 12.8 9.4 59 4.3 NNE 24 32 13 17 1012.7 1012.6 0.0
03/03:30pm 16.6 11.6 9.5 63 3.7 NNE 26 35 14 19 1012.7 1012.6 0.0
03/03:00pm 16.6 11.6 9.5 63 3.7 NNE 26 35 14 19 1013.0 1012.9 0.0
03/02:30pm 17.6 13.2 9.0 57 4.5 NNE 22 30 12 16 1013.3 1013.2 0.0
03/02:00pm 17.6 14.0 10.0 61 4.1 NNE 19 26 10 14 1013.4 1013.3 0.0
03/01:30pm 18.7 15.8 9.5 55 4.9 NNE 15 22 8 12 1013.7 1013.6 0.0
03/01:00pm 18.9 17.2 9.9 56 4.8 NE 9 15 5 8 1013.9 1013.8 0.0
03/12:30pm 17.8 16.1 9.9 60 4.2 NNE 9 17 5 9 1013.9 1013.8 0.0
03/12:00pm 17.7 16.7 8.8 56 4.7 ENE 4 7 2 4 1014.0 1013.9 0.0
03/11:30am 18.4 16.8 7.8 50 5.5 W 6 11 3 6 1014.2 1014.1 0.0
03/11:00am 18.2 17.0 7.9 51 5.3 W 4 9 2 5 1014.3 1014.2 0.0
03/10:30am 17.7 15.7 8.8 56 4.7 NW 9 15 5 8 1014.5 1014.3 0.0
03/10:00am 17.4 16.1 9.3 59 4.3 NW 6 13 3 7 1014.6 1014.4 0.0
03/09:30am 16.5 15.1 9.4 63 3.7 NNW 7 13 4 7 1014.8 1014.6 0.0
03/09:00am 15.1 12.0 8.8 66 3.2 NNW 15 20 8 11 1014.8 1014.6 0.0
03/08:30am 15.7 14.2 10.5 71 2.8 NW 9 17 5 9 1014.8 1014.6 0.0
03/08:00am 14.9 13.9 10.3 74 2.4 NW 6 13 3 7 1014.7 1014.5 0.0
03/07:30am 13.6 11.7 10.6 82 1.6 N 11 22 6 12 1014.5 1014.3 0.0
03/07:00am 12.9 10.6 10.4 85 1.3 NNW 13 20 7 11 1014.7 1014.5 0.0
03/06:30am 12.2 10.1 9.8 85 1.2 NNW 11 17 6 9 1014.9 1014.7 0.0
03/06:00am 11.5 9.4 9.6 88 1.0 NNW 11 15 6 8 1014.8 1014.6 0.0
03/05:30am 10.9 9.3 10.3 96 0.3 NW 9 11 5 6 1014.7 1014.5 0.0
03/05:00am 10.6 9.1 10.4 99 0.1 WNW 9 11 5 6 1014.7 1014.5 0.0
03/04:30am 10.7 9.6 10.5 99 0.1 WNW 7 9 4 5 1014.7 1014.5 0.0
03/04:00am 10.9 9.4 10.7 99 0.1 W 9 13 5 7 1014.7 1014.5 0.0
03/03:30am 11.1 10.0 10.6 97 0.3 W 7 11 4 6 1014.9 1014.7 0.0
03/03:00am 11.2 9.2 10.1 93 0.6 W 11 15 6 8 1015.2 1015.0 0.0
03/02:30am 11.4 10.6 9.8 90 0.8 W 4 7 2 4 1015.3 1015.1 0.0
03/02:00am 11.6 10.3 9.9 89 0.9 NW 7 11 4 6 1015.4 1015.2 0.0
03/01:30am 11.9 10.2 10.0 88 1.0 NW 9 13 5 7 1015.6 1015.4 0.0
03/01:00am 11.9 10.2 10.0 88 1.0 NW 9 13 5 7 1015.8 1015.6 0.0
03/12:30am 11.9 11.5 11.0 94 0.5 WNW 4 4 2 2 1016.3 1016.2 0.0
03/12:00am 11.8 10.8 10.9 94 0.5 WNW 7 9 4 5 1016.6 1016.5 0.0
 
Date/Time
EDT
Temp
°C
App
Temp
°C
Dew
Point
°C
Rel
Hum
%
Delta-T
°C
Wind Press
QNH
hPa
Press
MSL
hPa
Rain since
9am
mm
Dir  Spd
km/h
Gust
km/h
Spd
kts
Gust
kts
02/11:30pm 12.3 9.0 10.9 91 0.7 N 19 26 10 14 1016.7 1016.6 0.0
02/11:00pm 12.6 7.9 10.5 87 1.1 N 26 33 14 18 1016.9 1016.8 0.0

Latest Capital City Observations: Canberra | Sydney | Melbourne | Brisbane | Adelaide | Perth | Hobart | Darwin

Other formats

Comma delimited format used in spreadsheet applications
http://www.bom.gov.au/fwo/IDT60901/IDT60901.95986.axf

JavaScript Object Notation format (JSON) in row-major order
http://www.bom.gov.au/fwo/IDT60901/IDT60901.95986.json

Data quality

Most of these data are generated automatically and are frequently updated. Quality checks on data are not normally performed. It is possible for incorrect values to appear. Refer to information at About Latest Weather Observations and please check the disclaimer before using these data.